Time;durP1;ratioP1;P1;durP2;ratioP2;P2;SDS_P1;SDS_P2;PMS_P1;PMS_P2;Temp;Humidity;BMP_temperature;BMP_pressure;BME280_temperature;BME280_humidity;BME280_pressure;Samples;Min_cycle;Max_cycle;Signal;HPM_P1;HPM_P2
2022/01/28 00:02:07;;;;;;;15.10;10.00;;;5.00;97.90;;;;;;4999952;28;20061;-72
2022/01/28 00:04:32;;;;;;;13.48;10.23;;;4.90;98.10;;;;;;5004491;28;20049;-73
2022/01/28 00:06:58;;;;;;;12.70;9.35;;;4.90;98.30;;;;;;5002533;28;20034;-73
2022/01/28 00:09:25;;;;;;;11.85;9.10;;;4.90;98.40;;;;;;4998363;28;20117;-73
2022/01/28 00:11:50;;;;;;;10.82;7.72;;;4.90;98.20;;;;;;5003095;28;20045;-73
2022/01/28 00:17:21;;;;;;;12.63;9.35;;;5.10;98.10;;;;;;5001614;28;20599;-73
2022/01/28 00:38:34;;;;;;;7.47;5.55;;;5.20;97.40;;;;;;5003072;28;20120;-76
2022/01/28 00:41:00;;;;;;;7.13;5.40;;;5.20;97.90;;;;;;4998243;28;20052;-76
2022/01/28 00:43:25;;;;;;;8.85;7.30;;;5.30;97.40;;;;;;5000083;28;20034;-74
2022/01/28 00:45:51;;;;;;;8.07;6.43;;;5.40;97.30;;;;;;5001167;28;20064;-74
2022/01/28 00:48:17;;;;;;;10.02;6.75;;;5.50;97.30;;;;;;4999583;28;20373;-75
2022/01/28 00:50:43;;;;;;;11.77;7.45;;;5.50;97.20;;;;;;5003553;28;20552;-75
2022/01/28 00:53:12;;;;;;;10.15;6.43;;;5.50;97.10;;;;;;5000132;28;20042;-75
2022/01/28 00:55:38;;;;;;;9.75;6.82;;;5.50;97.10;;;;;;5002306;28;20396;-75
2022/01/28 00:58:04;;;;;;;7.93;5.82;;;5.50;97.10;;;;;;5002115;28;20058;-75
2022/01/28 01:00:30;;;;;;;5.88;4.80;;;5.50;97.00;;;;;;5003169;28;20042;-74
2022/01/28 01:02:56;;;;;;;5.60;4.95;;;5.50;97.00;;;;;;5000899;28;20563;-73
2022/01/28 01:05:22;;;;;;;6.47;4.82;;;5.40;97.10;;;;;;5004593;28;20113;-75
2022/01/28 01:07:48;;;;;;;5.88;4.40;;;5.00;97.60;;;;;;5018748;28;20565;-76
2022/01/28 01:10:14;;;;;;;6.35;4.75;;;5.00;97.90;;;;;;4996773;28;20034;-75
2022/01/28 01:12:43;;;;;;;6.22;4.65;;;5.00;98.00;;;;;;4997975;28;20022;-76
2022/01/28 01:15:12;;;;;;;6.95;4.90;;;4.90;98.20;;;;;;5001020;28;20030;-76
2022/01/28 01:17:44;;;;;;;6.70;4.72;;;4.70;98.70;;;;;;4999399;28;21492;-75
2022/01/28 01:22:42;;;;;;;6.40;5.20;;;4.40;99.30;;;;;;5000136;28;19928;-75
2022/01/28 01:25:22;;;;;;;8.13;5.93;;;4.40;99.40;;;;;;5002049;28;20080;-74
2022/01/28 01:27:53;;;;;;;11.60;6.53;;;4.50;99.60;;;;;;4997546;28;20037;-76
2022/01/28 01:30:19;;;;;;;9.27;6.63;;;4.40;99.70;;;;;;4998849;28;20038;-75
2022/01/28 01:32:45;;;;;;;9.75;6.72;;;4.30;99.80;;;;;;5001634;28;20042;-76
2022/01/28 01:35:10;;;;;;;9.65;6.53;;;4.20;99.80;;;;;;5002162;28;20021;-76
2022/01/28 01:37:36;;;;;;;8.27;6.20;;;4.20;99.90;;;;;;4998618;28;20077;-76
2022/01/28 01:40:05;;;;;;;7.80;5.47;;;4.20;99.80;;;;;;5001520;28;20112;-75
2022/01/28 01:42:48;;;;;;;8.27;5.97;;;4.20;99.70;;;;;;4999515;28;20266;-75
2022/01/28 01:53:26;;;;;;;8.43;6.07;;;4.40;99.50;;;;;;5001263;28;20064;-77
2022/01/28 01:55:51;;;;;;;8.07;6.13;;;4.30;99.50;;;;;;4998281;28;20480;-75
2022/01/28 01:58:20;;;;;;;5.95;4.32;;;4.30;99.60;;;;;;4999589;28;20501;-74
2022/01/28 02:00:45;;;;;;;7.43;5.50;;;4.30;99.40;;;;;;5001178;28;20146;-76
2022/01/28 02:03:11;;;;;;;7.47;5.00;;;4.30;99.40;;;;;;4998341;28;20428;-76
2022/01/28 02:05:37;;;;;;;8.57;6.03;;;4.30;99.40;;;;;;4998504;28;20548;-75
2022/01/28 02:08:06;;;;;;;8.45;5.60;;;4.30;99.30;;;;;;5001158;28;20106;-75
2022/01/28 02:10:35;;;;;;;9.45;6.50;;;4.30;99.30;;;;;;5000292;28;20045;-75
2022/01/28 02:13:01;;;;;;;8.80;6.05;;;4.20;99.40;;;;;;4998777;28;20036;-76
2022/01/28 02:15:27;;;;;;;7.38;5.60;;;4.20;99.50;;;;;;5001727;28;20404;-74
2022/01/28 02:17:53;;;;;;;9.15;6.32;;;4.30;99.30;;;;;;5000175;28;20038;-77
2022/01/28 02:20:29;;;;;;;7.07;5.50;;;4.20;99.30;;;;;;5001173;28;20040;-75
2022/01/28 02:22:55;;;;;;;7.90;5.35;;;4.20;99.20;;;;;;5000300;28;20026;-75
2022/01/28 02:25:23;;;;;;;6.32;5.13;;;4.20;99.30;;;;;;5001806;28;20725;-76
2022/01/28 02:27:49;;;;;;;6.60;4.85;;;4.10;99.30;;;;;;5003163;28;20034;-76
2022/01/28 02:30:18;;;;;;;6.32;4.57;;;4.10;99.30;;;;;;5000274;28;20042;-74
2022/01/28 02:32:45;;;;;;;5.72;4.68;;;4.10;99.40;;;;;;5002722;28;20077;-76
2022/01/28 02:35:11;;;;;;;6.22;4.93;;;4.10;99.40;;;;;;5002975;28;20036;-74
2022/01/28 02:37:37;;;;;;;9.05;6.22;;;4.20;99.70;;;;;;5004587;28;20026;-75
2022/01/28 02:40:05;;;;;;;8.52;6.10;;;4.20;99.40;;;;;;5002240;28;20030;-76
2022/01/28 02:42:47;;;;;;;10.15;7.57;;;4.20;99.30;;;;;;5003204;28;20018;-77
2022/01/28 02:45:23;;;;;;;10.38;7.20;;;4.30;99.30;;;;;;5004159;28;20037;-75
2022/01/28 02:47:54;;;;;;;8.38;5.72;;;4.30;99.50;;;;;;5004970;28;20396;-76
2022/01/28 02:50:20;;;;;;;7.93;5.25;;;4.10;99.70;;;;;;5004518;28;20200;-76
2022/01/28 02:53:01;;;;;;;8.27;5.57;;;4.20;99.60;;;;;;5003204;28;20587;-76
2022/01/28 02:55:26;;;;;;;8.60;6.22;;;4.30;99.40;;;;;;5001787;28;20030;-74
2022/01/28 02:58:03;;;;;;;7.32;5.18;;;4.20;99.30;;;;;;4998239;28;20459;-75
2022/01/28 03:00:29;;;;;;;7.85;5.68;;;4.30;99.40;;;;;;5005774;28;20092;-74
2022/01/28 03:02:54;;;;;;;8.20;6.07;;;4.30;99.20;;;;;;5001622;28;20525;-75
2022/01/28 03:07:46;;;;;;;8.27;6.72;;;4.20;99.30;;;;;;5002866;28;20034;-76
2022/01/28 03:13:00;;;;;;;9.85;7.40;;;4.00;99.60;;;;;;5000449;28;20038;-75
2022/01/28 03:15:25;;;;;;;8.73;6.43;;;4.00;99.80;;;;;;5001082;28;20985;-75
2022/01/28 03:18:07;;;;;;;9.40;6.97;;;4.00;99.70;;;;;;5003230;28;20045;-75
2022/01/28 03:20:41;;;;;;;7.72;6.35;;;4.00;99.90;;;;;;5005068;28;20553;-76
2022/01/28 03:23:07;;;;;;;8.45;6.38;;;4.00;99.70;;;;;;5002747;28;20038;-75
2022/01/28 03:25:41;;;;;;;7.18;5.35;;;4.00;99.60;;;;;;5002730;28;21183;-76
2022/01/28 03:28:07;;;;;;;7.07;5.40;;;4.10;99.60;;;;;;5001775;28;20163;-76
2022/01/28 03:30:33;;;;;;;6.18;5.07;;;4.10;99.50;;;;;;5002523;28;20034;-75
2022/01/28 03:32:58;;;;;;;7.15;5.60;;;4.10;99.40;;;;;;5004607;28;20612;-76
2022/01/28 03:35:24;;;;;;;6.70;5.07;;;4.10;99.50;;;;;;5001686;28;20030;-75
2022/01/28 03:37:58;;;;;;;5.90;4.70;;;4.10;99.50;;;;;;5001796;28;20041;-75
2022/01/28 03:40:29;;;;;;;6.45;5.10;;;4.10;99.70;;;;;;5002318;28;20400;-75
2022/01/28 03:42:54;;;;;;;5.90;4.22;;;4.10;99.70;;;;;;5000049;28;20392;-76
2022/01/28 03:45:20;;;;;;;4.90;4.40;;;4.10;99.60;;;;;;5000683;28;20030;-76
2022/01/28 03:47:46;;;;;;;5.20;4.68;;;4.10;99.50;;;;;;5000893;28;20644;-75
2022/01/28 03:50:11;;;;;;;6.40;4.05;;;4.10;99.50;;;;;;5000843;28;20157;-75
2022/01/28 03:52:37;;;;;;;4.28;3.45;;;4.10;99.40;;;;;;5003212;28;20491;-75
2022/01/28 03:55:03;;;;;;;4.68;3.45;;;4.10;99.30;;;;;;5000681;28;20030;-75
2022/01/28 03:57:29;;;;;;;4.00;3.13;;;4.10;99.30;;;;;;4998700;28;20057;-75
2022/01/28 03:59:54;;;;;;;3.95;3.10;;;4.10;99.20;;;;;;5001160;28;20042;-76
2022/01/28 04:02:25;;;;;;;4.20;3.20;;;4.20;99.10;;;;;;5001133;28;20456;-75
2022/01/28 04:12:52;;;;;;;4.22;2.35;;;4.30;98.10;;;;;;5003127;28;20068;-75
2022/01/28 04:15:49;;;;;;;2.53;2.33;;;4.40;97.60;;;;;;5002480;28;20477;-75
2022/01/28 04:18:15;;;;;;;2.80;2.40;;;4.40;97.40;;;;;;5002083;28;20701;-75
2022/01/28 04:20:40;;;;;;;3.17;2.53;;;4.40;97.50;;;;;;5003752;28;20116;-74
2022/01/28 04:23:06;;;;;;;2.65;2.45;;;4.40;97.50;;;;;;4998516;28;20092;-76
2022/01/28 04:25:32;;;;;;;3.78;2.20;;;4.40;97.50;;;;;;5003572;28;20061;-74
2022/01/28 04:27:57;;;;;;;3.08;1.90;;;4.30;97.50;;;;;;5001530;28;20125;-74
2022/01/28 04:30:23;;;;;;;2.72;2.17;;;4.30;97.70;;;;;;5001338;28;20034;-77
2022/01/28 04:32:50;;;;;;;2.53;2.13;;;4.40;97.30;;;;;;5000812;28;20041;-75
2022/01/28 04:35:16;;;;;;;3.88;1.95;;;4.40;97.30;;;;;;5001722;28;20029;-74
2022/01/28 04:40:15;;;;;;;3.65;2.33;;;4.50;97.00;;;;;;4999623;28;20064;-75
2022/01/28 04:42:56;;;;;;;2.35;2.10;;;4.50;96.80;;;;;;4999360;28;20747;-75
2022/01/28 04:55:47;;;;;;;2.25;2.05;;;4.50;96.70;;;;;;5001997;28;20172;-75
2022/01/28 05:27:20;;;;;;;1.67;1.38;;;4.50;96.80;;;;;;5000428;28;20041;-75
2022/01/28 05:29:46;;;;;;;3.33;1.50;;;4.60;96.50;;;;;;4999093;28;20044;-74
2022/01/28 05:32:12;;;;;;;0.95;0.93;;;4.70;96.30;;;;;;4999603;28;20023;-74
2022/01/28 05:34:39;;;;;;;2.35;1.83;;;4.70;96.10;;;;;;5000687;28;20488;-74
2022/01/28 05:37:06;;;;;;;1.70;1.40;;;4.70;96.10;;;;;;5002981;28;20373;-73
2022/01/28 05:39:32;;;;;;;1.58;1.48;;;4.80;96.20;;;;;;4999129;28;20034;-74
2022/01/28 05:41:57;;;;;;;2.00;1.70;;;4.70;96.30;;;;;;4997687;28;20045;-76
2022/01/28 05:44:23;;;;;;;2.60;1.75;;;4.70;96.50;;;;;;4997617;28;20049;-76
2022/01/28 05:46:51;;;;;;;2.03;1.70;;;4.70;96.70;;;;;;5003324;28;20432;-75
2022/01/28 05:49:17;;;;;;;1.50;1.40;;;4.70;96.90;;;;;;4997030;28;20030;-75
2022/01/28 05:51:43;;;;;;;2.03;1.60;;;4.70;97.00;;;;;;5001446;28;20026;-75
2022/01/28 05:54:10;;;;;;;1.55;1.38;;;4.60;97.20;;;;;;5000939;28;20053;-74
2022/01/28 05:56:36;;;;;;;1.58;1.48;;;4.60;97.20;;;;;;4998650;28;20145;-76
2022/01/28 05:59:02;;;;;;;2.38;1.33;;;4.60;97.20;;;;;;5000076;28;20133;-74
2022/01/28 06:01:28;;;;;;;6.47;1.80;;;4.60;97.20;;;;;;5003919;28;20096;-77
2022/01/28 06:03:53;;;;;;;2.47;1.50;;;4.70;97.20;;;;;;5000560;28;20515;-71
2022/01/28 06:06:21;;;;;;;1.40;1.30;;;4.70;97.10;;;;;;5001770;28;20447;-70
2022/01/28 06:08:53;;;;;;;2.42;1.70;;;4.80;97.00;;;;;;5002768;28;20476;-71
2022/01/28 06:11:19;;;;;;;3.67;2.35;;;4.70;97.30;;;;;;5001869;28;20042;-72
2022/01/28 06:13:45;;;;;;;1.45;1.20;;;4.80;97.00;;;;;;5001567;28;20030;-71
2022/01/28 06:16:12;;;;;;;3.90;1.30;;;4.80;96.90;;;;;;5008703;28;20053;-71
2022/01/28 06:18:38;;;;;;;4.20;1.50;;;4.80;96.80;;;;;;5005621;28;20033;-71
2022/01/28 06:21:05;;;;;;;1.73;1.10;;;4.80;96.60;;;;;;5004980;28;20026;-71
2022/01/28 06:23:31;;;;;;;1.90;1.23;;;4.90;96.50;;;;;;5005324;28;20810;-73
2022/01/28 06:25:57;;;;;;;2.55;1.65;;;4.90;96.30;;;;;;5006240;28;20112;-72
2022/01/28 06:28:23;;;;;;;1.67;1.50;;;4.90;96.40;;;;;;5001129;28;20038;-73
2022/01/28 06:30:54;;;;;;;1.50;1.20;;;4.90;96.50;;;;;;5001338;28;20045;-74
2022/01/28 06:33:20;;;;;;;1.65;1.20;;;4.90;96.30;;;;;;5004244;28;20037;-71
2022/01/28 06:35:46;;;;;;;1.20;1.10;;;4.90;96.20;;;;;;5003143;28;20393;-73
2022/01/28 06:38:12;;;;;;;1.83;1.20;;;4.90;96.00;;;;;;5007917;28;20044;-73
2022/01/28 06:40:38;;;;;;;1.55;1.30;;;4.90;96.10;;;;;;5003320;28;20025;-74
2022/01/28 06:43:08;;;;;;;1.30;1.20;;;4.90;96.10;;;;;;5001708;28;20495;-73
2022/01/28 06:45:34;;;;;;;1.23;1.13;;;4.80;95.90;;;;;;5005727;28;20060;-73
2022/01/28 06:48:00;;;;;;;1.60;1.50;;;4.80;95.80;;;;;;5004735;28;20488;-74
2022/01/28 06:50:25;;;;;;;1.13;1.00;;;4.80;95.80;;;;;;5005139;28;20033;-74
2022/01/28 06:52:51;;;;;;;1.67;1.50;;;4.70;95.80;;;;;;5004994;28;20033;-73
2022/01/28 06:55:17;;;;;;;1.52;1.00;;;4.70;95.70;;;;;;5004260;28;20030;-74
2022/01/28 06:57:43;;;;;;;0.90;0.70;;;4.80;95.60;;;;;;5002734;28;20404;-75
2022/01/28 07:00:10;;;;;;;1.98;0.90;;;4.80;94.60;;;;;;5007296;28;20037;-74
2022/01/28 07:02:37;;;;;;;1.00;0.90;;;4.80;94.90;;;;;;5004403;28;20034;-74
2022/01/28 07:05:04;;;;;;;2.28;1.08;;;4.80;94.90;;;;;;5004611;28;20030;-75
2022/01/28 07:07:30;;;;;;;1.02;0.93;;;4.90;94.80;;;;;;5007330;28;20041;-73
2022/01/28 07:09:56;;;;;;;1.90;0.85;;;4.90;94.30;;;;;;5001621;28;20037;-74
2022/01/28 07:12:22;;;;;;;1.00;0.75;;;4.90;94.30;;;;;;5004218;28;20746;-74
2022/01/28 07:14:48;;;;;;;3.08;1.00;;;5.00;94.20;;;;;;5006103;28;20105;-72
2022/01/28 07:17:14;;;;;;;0.90;0.75;;;5.00;94.00;;;;;;5009500;28;20474;-73
2022/01/28 07:19:40;;;;;;;1.70;0.80;;;5.00;93.40;;;;;;5002926;28;20576;-74
2022/01/28 07:22:06;;;;;;;2.55;0.93;;;5.10;93.20;;;;;;5004827;28;20128;-74
2022/01/28 07:24:32;;;;;;;1.65;0.73;;;5.10;93.10;;;;;;5004096;28;20493;-74
2022/01/28 07:26:57;;;;;;;0.80;0.52;;;5.20;92.70;;;;;;5004031;28;20037;-74
2022/01/28 07:29:27;;;;;;;1.70;0.57;;;5.20;92.60;;;;;;5004667;28;20062;-75
2022/01/28 07:31:54;;;;;;;1.65;0.70;;;5.30;92.10;;;;;;5003144;28;20026;-75
2022/01/28 07:34:20;;;;;;;1.88;0.60;;;5.40;92.10;;;;;;5005429;28;20133;-74
2022/01/28 07:36:45;;;;;;;2.40;0.85;;;5.50;91.70;;;;;;5003979;28;20129;-75
2022/01/28 07:39:11;;;;;;;1.02;0.60;;;5.40;91.70;;;;;;5003742;28;20125;-75
2022/01/28 07:41:37;;;;;;;1.33;0.50;;;5.40;91.80;;;;;;5005923;28;20116;-75
2022/01/28 07:44:04;;;;;;;1.83;0.68;;;5.40;91.80;;;;;;5001615;28;20026;-75
2022/01/28 07:46:29;;;;;;;0.85;0.50;;;5.40;91.80;;;;;;5008031;28;20083;-75
2022/01/28 07:48:56;;;;;;;3.03;0.68;;;5.50;91.40;;;;;;5000074;28;20029;-75
2022/01/28 07:51:21;;;;;;;3.65;0.70;;;5.50;91.50;;;;;;5003892;28;20037;-77
2022/01/28 07:53:47;;;;;;;1.48;0.60;;;5.50;91.30;;;;;;5003155;28;20037;-75
2022/01/28 07:56:14;;;;;;;1.60;0.80;;;5.50;91.20;;;;;;5003906;28;20029;-75
2022/01/28 07:58:40;;;;;;;0.85;0.60;;;5.50;91.50;;;;;;5003607;28;20129;-76
2022/01/28 08:01:06;;;;;;;0.90;0.52;;;5.40;91.50;;;;;;5001751;28;20105;-75
2022/01/28 08:03:31;;;;;;;1.98;0.57;;;5.30;91.60;;;;;;5003273;28;20030;-74
2022/01/28 08:05:57;;;;;;;1.33;0.60;;;5.30;91.40;;;;;;5004618;28;20491;-74
2022/01/28 08:08:23;;;;;;;1.63;0.50;;;5.30;91.30;;;;;;5005567;28;20034;-74
2022/01/28 08:10:49;;;;;;;1.25;0.77;;;5.30;91.50;;;;;;5004432;28;20038;-75
2022/01/28 08:13:15;;;;;;;0.47;0.40;;;5.30;91.20;;;;;;5002539;28;20029;-76
2022/01/28 08:15:41;;;;;;;1.35;0.68;;;5.20;91.50;;;;;;5002991;28;20406;-76
2022/01/28 08:18:08;;;;;;;0.90;0.50;;;5.20;91.20;;;;;;5000731;28;20034;-76
2022/01/28 08:20:35;;;;;;;1.83;0.60;;;5.20;91.10;;;;;;5000961;28;20044;-76
2022/01/28 08:23:02;;;;;;;1.65;0.60;;;5.20;90.90;;;;;;5000827;28;20521;-75
2022/01/28 08:25:29;;;;;;;1.92;0.30;;;5.30;91.00;;;;;;5005895;28;20029;-76
2022/01/28 08:27:56;;;;;;;0.93;0.50;;;5.40;90.50;;;;;;5002422;28;20057;-75
2022/01/28 08:30:24;;;;;;;1.92;0.50;;;5.60;90.30;;;;;;5003823;28;20049;-76
2022/01/28 08:32:51;;;;;;;1.08;0.38;;;5.80;89.40;;;;;;5004099;28;20036;-77
2022/01/28 08:35:23;;;;;;;1.17;0.50;;;5.90;89.00;;;;;;5004163;28;20032;-75
2022/01/28 08:37:50;;;;;;;1.85;0.50;;;5.90;88.80;;;;;;4996853;28;20033;-76
2022/01/28 08:40:16;;;;;;;1.65;0.30;;;5.90;88.60;;;;;;5000372;28;20025;-77
2022/01/28 08:42:42;;;;;;;0.90;0.55;;;5.90;89.20;;;;;;5001662;28;20080;-76
2022/01/28 08:45:09;;;;;;;0.65;0.30;;;6.00;89.00;;;;;;4995630;28;20034;-76
2022/01/28 08:47:34;;;;;;;1.70;0.50;;;5.90;88.50;;;;;;5001817;28;20049;-76
2022/01/28 08:50:00;;;;;;;2.63;0.40;;;5.90;88.50;;;;;;4998954;28;20030;-76
2022/01/28 08:52:26;;;;;;;3.45;0.45;;;5.80;89.10;;;;;;5005295;28;20120;-77
2022/01/28 08:54:51;;;;;;;1.40;0.47;;;6.00;89.00;;;;;;5005536;28;20038;-76
2022/01/28 08:57:17;;;;;;;1.85;0.73;;;6.10;88.50;;;;;;4997888;28;20062;-76
2022/01/28 08:59:44;;;;;;;2.22;0.63;;;6.30;87.50;;;;;;5001325;28;20513;-76
2022/01/28 09:02:10;;;;;;;0.75;0.35;;;6.20;87.10;;;;;;4999765;28;20022;-76
2022/01/28 09:04:36;;;;;;;0.50;0.30;;;6.30;87.60;;;;;;4999709;28;20087;-76
2022/01/28 09:07:02;;;;;;;2.75;0.50;;;6.30;87.70;;;;;;5001274;28;20096;-76
2022/01/28 09:09:29;;;;;;;1.60;0.47;;;6.20;87.80;;;;;;5003175;28;20038;-76
2022/01/28 09:12:19;;;;;;;0.50;0.22;;;6.30;87.60;;;;;;5000096;28;20121;-76
2022/01/28 09:14:45;;;;;;;1.05;0.40;;;6.40;86.90;;;;;;4999702;28;20088;-75
2022/01/28 09:17:12;;;;;;;1.45;0.50;;;6.50;86.30;;;;;;5000369;28;20286;-77
2022/01/28 09:19:37;;;;;;;0.52;0.30;;;6.50;86.60;;;;;;4996853;28;21153;-76
2022/01/28 09:22:04;;;;;;;0.77;0.10;;;6.50;85.30;;;;;;5001836;28;20451;-77
2022/01/28 09:24:30;;;;;;;3.13;0.40;;;6.50;85.60;;;;;;4998062;28;20065;-77
2022/01/28 09:26:56;;;;;;;2.70;0.30;;;6.40;85.80;;;;;;4998804;28;20481;-76
2022/01/28 09:29:22;;;;;;;0.70;0.38;;;6.40;85.30;;;;;;4997368;28;20045;-76
2022/01/28 09:31:49;;;;;;;1.02;0.50;;;6.40;86.50;;;;;;4999580;28;20025;-76
2022/01/28 09:34:15;;;;;;;1.63;0.30;;;6.50;84.70;;;;;;4996611;28;20038;-77
2022/01/28 09:36:40;;;;;;;3.13;0.43;;;6.30;85.20;;;;;;4995166;28;20758;-76
2022/01/28 09:39:07;;;;;;;1.77;0.50;;;6.30;84.00;;;;;;4996721;28;20034;-76
2022/01/28 09:41:34;;;;;;;1.45;0.38;;;6.20;84.70;;;;;;4997811;28;20026;-77
2022/01/28 09:44:02;;;;;;;1.70;0.50;;;6.30;84.60;;;;;;4996771;28;20022;-76
2022/01/28 09:46:28;;;;;;;1.20;0.65;;;6.20;84.90;;;;;;4995865;28;20038;-77
2022/01/28 09:48:54;;;;;;;1.38;0.45;;;6.20;83.30;;;;;;5001731;28;20099;-76
2022/01/28 09:51:19;;;;;;;1.70;0.40;;;6.20;84.40;;;;;;5000045;28;20053;-76
2022/01/28 09:53:45;;;;;;;1.55;0.50;;;6.20;83.30;;;;;;4998990;28;20046;-77
2022/01/28 09:56:11;;;;;;;2.00;0.68;;;6.20;82.10;;;;;;5002196;28;20057;-76
2022/01/28 09:58:37;;;;;;;2.33;0.30;;;6.30;81.90;;;;;;4956833;28;1274784;-75
2022/01/28 10:01:03;;;;;;;0.45;0.20;;;6.40;82.90;;;;;;5003158;28;20040;-76
2022/01/28 10:03:29;;;;;;;2.83;0.65;;;6.50;82.60;;;;;;4999017;28;20133;-76
2022/01/28 10:05:57;;;;;;;1.95;0.50;;;6.60;79.40;;;;;;5001319;28;20437;-76
2022/01/28 10:08:25;;;;;;;1.00;0.47;;;6.50;79.10;;;;;;4998912;28;20477;-76
2022/01/28 10:10:54;;;;;;;2.33;0.70;;;6.50;78.80;;;;;;4996083;28;20049;-76
2022/01/28 10:16:14;;;;;;;2.28;0.32;;;6.40;79.30;;;;;;4998424;28;20061;-75
2022/01/28 10:18:42;;;;;;;1.55;0.40;;;6.30;79.30;;;;;;5002091;28;20021;-76
2022/01/28 10:21:14;;;;;;;4.57;0.60;;;6.20;80.80;;;;;;4997627;28;20018;-76
2022/01/28 10:23:40;;;;;;;1.20;0.30;;;6.30;79.50;;;;;;5000632;28;20037;-77
2022/01/28 10:26:05;;;;;;;0.85;0.20;;;6.40;80.20;;;;;;4996587;28;20029;-77
2022/01/28 10:28:33;;;;;;;2.78;0.63;;;6.40;79.10;;;;;;5000565;28;20099;-76
2022/01/28 10:31:03;;;;;;;2.78;0.45;;;6.30;80.50;;;;;;5001724;28;20054;-76
2022/01/28 10:33:29;;;;;;;2.28;0.40;;;6.30;80.30;;;;;;4998722;28;20079;-76
2022/01/28 10:36:00;;;;;;;1.98;0.43;;;6.30;79.80;;;;;;5001671;28;20022;-77
2022/01/28 10:38:34;;;;;;;0.97;0.40;;;6.30;79.20;;;;;;5002310;28;20043;-77
2022/01/28 10:41:13;;;;;;;2.95;0.32;;;6.20;79.80;;;;;;5000411;28;20032;-75
2022/01/28 10:43:54;;;;;;;2.20;0.47;;;6.30;80.20;;;;;;5000598;28;20036;-73
2022/01/28 10:46:34;;;;;;;2.05;0.63;;;6.30;80.20;;;;;;4996740;28;20085;-75
2022/01/28 10:49:08;;;;;;;1.02;0.40;;;6.30;80.80;;;;;;4999187;28;20507;-76
2022/01/28 10:51:41;;;;;;;0.47;0.20;;;6.30;79.90;;;;;;5000399;28;20480;-76
2022/01/28 10:54:07;;;;;;;1.73;0.57;;;6.20;79.50;;;;;;5001741;28;20044;-77
2022/01/28 10:56:46;;;;;;;2.30;0.50;;;6.30;81.20;;;;;;4997597;28;22131;-76
2022/01/28 10:59:14;;;;;;;2.65;0.50;;;6.30;78.80;;;;;;5003527;28;20042;-78
2022/01/28 11:01:42;;;;;;;4.15;0.40;;;6.30;79.60;;;;;;5002257;28;20047;-76
2022/01/28 11:04:12;;;;;;;2.22;0.40;;;6.40;79.00;;;;;;5000863;28;20029;-76
2022/01/28 11:06:39;;;;;;;2.08;0.40;;;6.40;78.10;;;;;;4999284;28;20092;-76
2022/01/28 11:09:06;;;;;;;1.88;0.50;;;6.40;79.40;;;;;;5000770;28;20022;-76
2022/01/28 11:11:32;;;;;;;1.77;0.50;;;6.40;79.00;;;;;;5001221;28;20066;-77
2022/01/28 11:13:58;;;;;;;1.50;0.38;;;6.30;80.00;;;;;;5002198;28;20038;-76
2022/01/28 11:16:25;;;;;;;1.92;0.47;;;6.40;79.10;;;;;;5001632;28;20484;-76
2022/01/28 11:18:53;;;;;;;1.70;0.20;;;6.40;79.30;;;;;;5004915;28;20030;-76
2022/01/28 11:21:27;;;;;;;1.45;0.40;;;6.40;80.00;;;;;;5005978;28;20068;-76
2022/01/28 11:24:15;;;;;;;1.52;0.30;;;6.30;80.10;;;;;;5000506;28;20034;-76
2022/01/28 11:27:17;;;;;;;1.70;0.30;;;6.30;80.60;;;;;;4982088;28;20453;-75
2022/01/28 11:29:43;;;;;;;1.38;0.52;;;6.10;80.60;;;;;;4999747;28;20037;-75
2022/01/28 11:32:15;;;;;;;1.38;0.30;;;6.10;82.20;;;;;;5000693;28;20056;-74
2022/01/28 11:35:06;;;;;;;3.03;0.68;;;6.00;82.60;;;;;;5001250;28;20037;-75
2022/01/28 11:37:35;;;;;;;2.25;0.47;;;6.00;82.60;;;;;;5001597;28;20060;-76
2022/01/28 11:40:08;;;;;;;1.20;0.38;;;6.00;83.80;;;;;;4999287;28;20389;-76
2022/01/28 11:42:34;;;;;;;1.55;0.80;;;6.10;84.10;;;;;;4998415;28;20025;-77
2022/01/28 11:45:02;;;;;;;7.07;2.83;;;6.20;83.40;;;;;;4999187;28;20038;-78
2022/01/28 11:47:30;;;;;;;6.07;3.65;;;6.30;82.80;;;;;;4997133;28;20038;-78
2022/01/28 11:50:17;;;;;;;10.50;5.38;;;6.30;82.40;;;;;;4995989;28;20037;-78
2022/01/28 11:52:49;;;;;;;4.63;1.75;;;6.30;83.50;;;;;;5002775;28;20045;-78
2022/01/28 11:55:15;;;;;;;12.60;6.72;;;6.40;80.90;;;;;;4999733;28;20044;-77
2022/01/28 11:57:52;;;;;;;15.02;7.28;;;6.40;82.30;;;;;;4996509;28;20053;-77
2022/01/28 12:00:30;;;;;;;7.90;2.85;;;6.40;82.20;;;;;;4997855;28;20054;-77
2022/01/28 12:02:55;;;;;;;3.65;0.82;;;6.50;82.40;;;;;;4998369;28;20101;-77
2022/01/28 12:05:30;;;;;;;23.10;13.55;;;6.50;81.40;;;;;;5001871;28;20034;-78
2022/01/28 12:08:00;;;;;;;5.70;0.73;;;6.40;82.80;;;;;;5000835;28;20061;-78
2022/01/28 12:10:27;;;;;;;2.25;1.10;;;6.40;81.90;;;;;;5000629;28;20061;-76
2022/01/28 12:13:01;;;;;;;1.17;0.60;;;6.40;82.40;;;;;;5003517;28;20443;-74
2022/01/28 12:15:30;;;;;;;3.45;1.08;;;6.40;82.30;;;;;;5000446;28;20171;-76
2022/01/28 12:18:11;;;;;;;3.20;0.57;;;6.30;82.30;;;;;;4998809;28;20567;-74
2022/01/28 12:20:48;;;;;;;1.80;0.55;;;6.30;81.70;;;;;;5002494;28;20416;-77
2022/01/28 12:23:14;;;;;;;3.72;0.55;;;6.40;82.10;;;;;;4997560;28;20026;-77
2022/01/28 12:25:39;;;;;;;1.77;0.50;;;6.40;82.30;;;;;;4999374;28;20040;-76
2022/01/28 12:28:26;;;;;;;2.25;0.50;;;6.50;83.30;;;;;;4997848;28;20061;-75
2022/01/28 12:31:12;;;;;;;2.25;0.30;;;6.50;82.10;;;;;;5001325;28;20550;-76
2022/01/28 12:33:45;;;;;;;4.88;0.90;;;6.40;82.80;;;;;;5001072;28;20067;-77
2022/01/28 12:36:17;;;;;;;2.40;0.45;;;6.40;83.20;;;;;;4999404;28;20026;-77
2022/01/28 12:38:54;;;;;;;;;;;6.50;83.60;;;;;;5003380;28;20049;-75
2022/01/28 12:41:21;;;;;;;1.17;0.43;;;6.50;82.00;;;;;;5000649;28;19955;-74
2022/01/28 12:43:47;;;;;;;2.75;1.38;;;6.50;82.30;;;;;;5001981;28;20500;-73
2022/01/28 12:46:15;;;;;;;3.22;1.10;;;6.50;83.30;;;;;;5001886;28;20045;-73
2022/01/28 12:48:51;;;;;;;3.10;1.00;;;6.50;82.70;;;;;;4999576;28;20029;-75
2022/01/28 12:51:20;;;;;;;3.22;1.40;;;6.50;81.40;;;;;;5002924;28;20049;-73
2022/01/28 12:53:54;;;;;;;2.22;0.80;;;6.40;82.30;;;;;;5003712;28;20026;-75
2022/01/28 12:56:30;;;;;;;3.83;0.60;;;6.50;81.80;;;;;;5002268;28;20937;-75
2022/01/28 12:58:56;;;;;;;2.97;1.00;;;6.50;81.50;;;;;;4995783;28;20568;-75
2022/01/28 13:01:22;;;;;;;13.38;1.20;;;6.40;82.10;;;;;;4998628;28;20048;-73
2022/01/28 13:04:02;;;;;;;3.65;0.60;;;6.40;82.50;;;;;;5002585;28;20045;-73
2022/01/28 13:08:58;;;;;;;1.30;0.57;;;6.40;81.80;;;;;;5000634;28;20034;-73
2022/01/28 13:11:26;;;;;;;3.78;1.10;;;6.40;82.30;;;;;;4997817;28;20030;-73
2022/01/28 13:13:55;;;;;;;2.00;0.68;;;6.50;82.20;;;;;;5002841;28;20041;-73
2022/01/28 13:16:49;;;;;;;2.75;1.50;;;6.40;81.30;;;;;;4998167;28;20022;-72
2022/01/28 13:19:15;;;;;;;1.65;0.98;;;6.40;82.20;;;;;;4984383;28;20121;-72
2022/01/28 13:21:43;;;;;;;3.42;1.10;;;6.50;83.00;;;;;;4999041;28;20021;-73
2022/01/28 13:24:24;;;;;;;3.03;1.23;;;6.50;82.20;;;;;;4998769;28;20057;-72
2022/01/28 13:27:07;;;;;;;2.10;0.80;;;6.50;80.70;;;;;;4997408;28;20030;-73
2022/01/28 13:29:49;;;;;;;3.90;0.88;;;6.40;80.50;;;;;;5003155;28;20068;-75
2022/01/28 13:32:22;;;;;;;;;;;6.40;81.60;;;;;;5000147;28;20022;-73
2022/01/28 13:34:56;;;;;;;1.67;0.50;;;6.30;81.60;;;;;;4999095;28;19914;-73
2022/01/28 13:37:39;;;;;;;2.38;0.63;;;6.40;81.50;;;;;;5001513;28;20026;-73
2022/01/28 13:40:17;;;;;;;3.55;1.70;;;6.30;81.50;;;;;;5000686;28;20148;-74
2022/01/28 13:43:03;;;;;;;1.35;0.40;;;6.30;82.10;;;;;;4996136;28;20037;-73
2022/01/28 13:45:30;;;;;;;3.30;1.02;;;6.40;82.50;;;;;;5000429;28;20058;-73
2022/01/28 13:47:56;;;;;;;2.40;0.60;;;6.40;82.50;;;;;;4998851;28;20112;-72
2022/01/28 13:50:28;;;;;;;2.08;0.65;;;6.40;82.80;;;;;;5001416;28;20084;-73
2022/01/28 13:53:34;;;;;;;3.03;1.38;;;6.30;82.60;;;;;;4999616;28;20037;-72
2022/01/28 13:56:00;;;;;;;9.77;3.83;;;6.30;83.90;;;;;;5002649;28;20026;-72
2022/01/28 13:58:26;;;;;;;2.13;0.73;;;6.30;83.20;;;;;;5001003;28;20805;-74
2022/01/28 14:00:53;;;;;;;2.67;0.88;;;6.40;84.20;;;;;;5000120;28;20083;-72
2022/01/28 14:03:26;;;;;;;2.97;1.08;;;6.40;84.20;;;;;;4999016;28;20057;-72
2022/01/28 14:06:01;;;;;;;2.75;1.05;;;6.40;83.50;;;;;;4999877;28;20049;-73
2022/01/28 14:08:40;;;;;;;4.20;0.73;;;6.30;83.90;;;;;;4999254;28;20034;-72
2022/01/28 14:11:33;;;;;;;1.77;0.63;;;6.20;84.30;;;;;;5001066;28;20045;-72
2022/01/28 14:14:05;;;;;;;1.63;0.80;;;6.20;83.80;;;;;;5001467;28;20034;-72
2022/01/28 14:16:30;;;;;;;3.28;0.60;;;6.10;84.80;;;;;;5000430;28;20030;-73
2022/01/28 14:18:56;;;;;;;2.35;0.45;;;6.10;85.30;;;;;;4996713;28;20038;-72
2022/01/28 14:21:22;;;;;;;3.13;0.75;;;6.10;85.60;;;;;;4997761;28;20693;-72
2022/01/28 14:23:47;;;;;;;2.83;1.05;;;6.00;86.20;;;;;;5002793;28;20037;-72
2022/01/28 14:26:14;;;;;;;4.88;1.23;;;6.00;85.90;;;;;;5003198;28;20034;-73
2022/01/28 14:29:09;;;;;;;2.17;0.68;;;6.00;86.50;;;;;;5001044;28;20137;-72
2022/01/28 14:31:26;;;;;;;2.38;0.47;;;6.00;86.80;;;;;;5004032;28;20049;-73
2022/01/28 14:33:52;;;;;;;1.77;0.57;;;5.80;88.00;;;;;;5000681;28;20040;-73
2022/01/28 14:36:18;;;;;;;2.15;0.55;;;5.80;87.60;;;;;;5001620;28;20499;-72
2022/01/28 14:38:47;;;;;;;2.53;0.75;;;5.80;87.40;;;;;;5000052;28;20049;-73
2022/01/28 14:41:14;;;;;;;1.13;0.43;;;5.80;88.20;;;;;;5001383;28;20575;-73